Time;durP1;ratioP1;P1;durP2;ratioP2;P2;SDS_P1;SDS_P2;PMS_P1;PMS_P2;Temp;Humidity;BMP_temperature;BMP_pressure;BME280_temperature;BME280_humidity;BME280_pressure;Samples;Min_cycle;Max_cycle;Signal;HPM_P1;HPM_P2
2021/04/08 00:01:23;;;;;;;6.72;1.58;;;;;;;;;;5089126;28;20042;-70
2021/04/08 00:03:49;;;;;;;9.32;1.90;;;;;;;;;;5084865;28;20607;-70
2021/04/08 00:06:15;;;;;;;7.45;1.90;;;;;;;;;;5087186;28;20595;-70
2021/04/08 00:08:41;;;;;;;11.60;1.80;;;;;;;;;;5088789;28;20039;-72
2021/04/08 00:11:07;;;;;;;5.95;1.63;;;;;;;;;;5087045;28;20478;-70
2021/04/08 00:13:34;;;;;;;14.20;1.63;;;;;;;;;;5087480;28;20078;-70
2021/04/08 00:16:00;;;;;;;6.93;1.45;;;;;;;;;;5085367;28;20036;-71
2021/04/08 00:18:26;;;;;;;9.90;1.90;;;;;;;;;;5085789;28;20031;-71
2021/04/08 00:20:52;;;;;;;10.45;3.10;;;;;;;;;;5086478;28;20027;-70
2021/04/08 00:23:18;;;;;;;3.15;1.35;;;;;;;;;;5087588;28;20057;-71
2021/04/08 00:25:44;;;;;;;22.25;2.47;;;;;;;;;;5086367;28;20177;-70
2021/04/08 00:28:10;;;;;;;11.57;1.73;;;;;;;;;;5089217;28;20024;-70
2021/04/08 00:30:43;;;;;;;9.13;1.70;;;;;;;;;;5086366;28;20029;-70
2021/04/08 00:33:10;;;;;;;6.68;1.95;;;;;;;;;;5084916;28;20020;-69
2021/04/08 00:35:36;;;;;;;4.78;1.55;;;;;;;;;;5087671;28;20032;-70
2021/04/08 00:38:02;;;;;;;7.00;1.42;;;;;;;;;;5086049;28;20477;-69
2021/04/08 00:40:28;;;;;;;6.38;1.42;;;;;;;;;;5088123;28;20088;-70
2021/04/08 00:42:55;;;;;;;8.57;2.53;;;;;;;;;;5087005;28;20491;-70
2021/04/08 00:45:21;;;;;;;8.60;2.20;;;;;;;;;;5087828;28;20081;-70
2021/04/08 00:47:47;;;;;;;10.15;1.70;;;;;;;;;;5086382;28;20073;-69
2021/04/08 00:50:13;;;;;;;9.50;2.20;;;;;;;;;;5086797;28;20020;-69
2021/04/08 00:52:41;;;;;;;4.57;1.50;;;;;;;;;;5088487;28;20020;-70
2021/04/08 00:55:08;;;;;;;8.85;1.80;;;;;;;;;;5084285;28;20020;-70
2021/04/08 00:57:34;;;;;;;6.13;1.63;;;;;;;;;;5085299;28;20153;-69
2021/04/08 01:00:02;;;;;;;7.97;2.15;;;;;;;;;;5086879;28;20231;-69
2021/04/08 01:02:28;;;;;;;8.85;1.88;;;;;;;;;;5085242;28;20020;-70
2021/04/08 01:04:54;;;;;;;12.57;2.75;;;;;;;;;;5088618;28;20089;-70
2021/04/08 01:07:20;;;;;;;9.77;1.90;;;;;;;;;;5089932;28;20020;-70
2021/04/08 01:09:46;;;;;;;10.63;2.47;;;;;;;;;;5091024;28;20074;-70
2021/04/08 01:12:12;;;;;;;9.93;1.90;;;;;;;;;;5092615;28;20020;-70
2021/04/08 01:14:38;;;;;;;5.78;2.30;;;;;;;;;;5091605;28;20157;-70
2021/04/08 01:17:16;;;;;;;8.07;1.88;;;;;;;;;;5090222;28;20130;-70
2021/04/08 01:19:57;;;;;;;9.52;2.25;;;;;;;;;;5088691;28;20016;-70
2021/04/08 01:22:32;;;;;;;6.17;1.40;;;;;;;;;;5090876;28;20081;-70
2021/04/08 01:24:58;;;;;;;6.40;2.08;;;;;;;;;;5088401;28;20036;-69
2021/04/08 01:27:36;;;;;;;10.90;2.88;;;;;;;;;;5092595;28;20027;-70
2021/04/08 01:30:22;;;;;;;9.85;2.22;;;;;;;;;;5088833;28;20111;-69
2021/04/08 01:32:52;;;;;;;7.35;1.83;;;;;;;;;;5086690;28;20043;-70
2021/04/08 01:35:21;;;;;;;10.23;1.88;;;;;;;;;;5086107;28;20078;-70
2021/04/08 01:38:10;;;;;;;7.18;1.70;;;;;;;;;;5091127;28;20040;-70
2021/04/08 01:40:36;;;;;;;10.48;2.10;;;;;;;;;;5076927;28;20623;-70
2021/04/08 01:43:04;;;;;;;10.88;2.40;;;;;;;;;;5089644;28;20551;-70
2021/04/08 01:45:30;;;;;;;6.47;1.92;;;;;;;;;;5089931;28;20032;-69
2021/04/08 01:47:57;;;;;;;7.82;1.67;;;;;;;;;;5092211;28;20071;-70
2021/04/08 01:50:24;;;;;;;11.40;2.33;;;;;;;;;;5087063;28;20036;-70
2021/04/08 01:52:52;;;;;;;7.85;1.55;;;;;;;;;;5090831;28;20024;-70
2021/04/08 01:55:19;;;;;;;9.00;1.85;;;;;;;;;;5090387;28;20070;-70
2021/04/08 01:57:45;;;;;;;9.85;2.38;;;;;;;;;;5091773;28;20024;-70
2021/04/08 02:00:13;;;;;;;10.55;1.85;;;;;;;;;;5087660;28;20028;-70
2021/04/08 02:02:40;;;;;;;7.15;1.75;;;;;;;;;;5091144;28;20024;-70
2021/04/08 02:05:11;;;;;;;7.07;1.27;;;;;;;;;;5090725;28;20071;-70
2021/04/08 02:07:38;;;;;;;7.60;1.80;;;;;;;;;;5091553;28;20020;-70
2021/04/08 02:10:06;;;;;;;12.77;3.65;;;;;;;;;;5090088;28;20028;-70
2021/04/08 02:12:32;;;;;;;8.98;1.83;;;;;;;;;;5091512;28;20024;-70
2021/04/08 02:14:59;;;;;;;11.90;2.20;;;;;;;;;;5090053;28;20520;-70
2021/04/08 02:17:25;;;;;;;5.57;1.50;;;;;;;;;;5089272;28;20041;-70
2021/04/08 02:19:52;;;;;;;7.93;1.52;;;;;;;;;;5086245;28;20555;-69
2021/04/08 02:22:19;;;;;;;5.97;1.73;;;;;;;;;;5089613;28;20071;-70
2021/04/08 02:24:45;;;;;;;11.27;2.10;;;;;;;;;;5087485;28;20039;-69
2021/04/08 02:27:12;;;;;;;8.27;2.00;;;;;;;;;;5088567;28;20082;-70
2021/04/08 02:29:39;;;;;;;13.93;1.92;;;;;;;;;;5081438;28;20021;-70
2021/04/08 02:32:06;;;;;;;9.68;1.75;;;;;;;;;;5088210;28;20433;-70
2021/04/08 02:34:32;;;;;;;9.73;1.70;;;;;;;;;;5087518;28;20036;-70
2021/04/08 02:36:58;;;;;;;8.75;1.98;;;;;;;;;;5090687;28;20032;-70
2021/04/08 02:39:24;;;;;;;13.73;2.50;;;;;;;;;;5084891;28;20111;-70
2021/04/08 02:41:50;;;;;;;10.90;1.88;;;;;;;;;;5090032;28;20008;-70
2021/04/08 02:44:17;;;;;;;7.93;1.50;;;;;;;;;;5088672;28;20093;-70
2021/04/08 02:46:43;;;;;;;6.50;1.73;;;;;;;;;;5090643;28;20020;-70
2021/04/08 02:49:09;;;;;;;10.23;1.65;;;;;;;;;;5089804;28;20016;-70
2021/04/08 02:51:40;;;;;;;7.78;1.63;;;;;;;;;;5089883;28;20020;-70
2021/04/08 02:54:06;;;;;;;8.88;1.50;;;;;;;;;;5088068;28;20493;-69
2021/04/08 02:56:41;;;;;;;5.07;1.90;;;;;;;;;;5090458;28;20085;-69
2021/04/08 02:59:09;;;;;;;12.35;1.63;;;;;;;;;;5087643;28;20035;-70
2021/04/08 03:01:41;;;;;;;6.72;1.38;;;;;;;;;;5088121;28;20042;-69
2021/04/08 03:04:07;;;;;;;;;;;;;;;;;;5087899;28;20035;-69
2021/04/08 03:06:34;;;;;;;11.07;2.25;;;;;;;;;;5090397;28;19955;-69
2021/04/08 03:09:02;;;;;;;6.35;1.95;;;;;;;;;;5086276;28;20024;-70
2021/04/08 03:11:33;;;;;;;10.82;1.80;;;;;;;;;;5089783;28;20024;-70
2021/04/08 03:14:06;;;;;;;8.80;2.22;;;;;;;;;;5087739;28;20032;-70
2021/04/08 03:16:35;;;;;;;7.40;1.90;;;;;;;;;;5089143;28;20024;-70
2021/04/08 03:19:02;;;;;;;7.32;1.88;;;;;;;;;;5088479;28;20024;-70
2021/04/08 03:21:28;;;;;;;8.00;1.75;;;;;;;;;;5083213;28;20028;-70
2021/04/08 03:23:55;;;;;;;8.75;1.83;;;;;;;;;;5088992;28;20028;-70
2021/04/08 03:26:22;;;;;;;8.27;1.80;;;;;;;;;;5088629;28;20028;-70
2021/04/08 03:28:48;;;;;;;7.68;1.98;;;;;;;;;;5088400;28;20016;-70
2021/04/08 03:31:15;;;;;;;6.82;2.00;;;;;;;;;;5087105;28;20147;-70
2021/04/08 03:33:41;;;;;;;12.07;2.40;;;;;;;;;;5088029;28;20042;-70
2021/04/08 03:36:08;;;;;;;8.48;2.05;;;;;;;;;;5088479;28;20143;-70
2021/04/08 03:38:34;;;;;;;5.38;1.50;;;;;;;;;;5090536;28;20032;-71
2021/04/08 03:41:00;;;;;;;12.68;2.20;;;;;;;;;;5085672;28;20048;-70
2021/04/08 03:43:27;;;;;;;7.50;2.08;;;;;;;;;;5088348;28;20050;-70
2021/04/08 03:45:56;;;;;;;8.52;1.90;;;;;;;;;;5087686;28;20047;-70
2021/04/08 03:48:23;;;;;;;12.80;2.55;;;;;;;;;;5088885;28;20043;-70
2021/04/08 03:50:49;;;;;;;7.03;1.80;;;;;;;;;;5085683;28;20016;-70
2021/04/08 03:53:17;;;;;;;6.70;1.88;;;;;;;;;;5087758;28;20024;-70
2021/04/08 03:55:43;;;;;;;8.55;2.35;;;;;;;;;;5087082;28;20012;-70
2021/04/08 03:58:11;;;;;;;9.77;2.95;;;;;;;;;;5089730;28;20043;-70
2021/04/08 04:00:38;;;;;;;9.32;2.50;;;;;;;;;;5086788;28;20538;-70
2021/04/08 04:03:04;;;;;;;8.85;2.47;;;;;;;;;;5087720;28;20032;-70
2021/04/08 04:05:30;;;;;;;7.05;2.05;;;;;;;;;;5087746;28;20055;-69
2021/04/08 04:07:57;;;;;;;5.68;2.45;;;;;;;;;;5090018;28;20024;-70
2021/04/08 04:10:23;;;;;;;9.38;2.65;;;;;;;;;;5083794;28;20394;-70
2021/04/08 04:12:50;;;;;;;8.35;2.72;;;;;;;;;;5089449;28;20170;-70
2021/04/08 04:15:17;;;;;;;7.00;2.67;;;;;;;;;;5086283;28;20567;-69
2021/04/08 04:17:43;;;;;;;10.18;2.92;;;;;;;;;;5089191;28;20073;-70
2021/04/08 04:20:09;;;;;;;19.35;3.13;;;;;;;;;;5086483;28;20093;-70
2021/04/08 04:22:36;;;;;;;8.73;2.40;;;;;;;;;;5088018;28;20071;-70
2021/04/08 04:25:02;;;;;;;10.98;2.75;;;;;;;;;;5086406;28;20063;-69
2021/04/08 04:27:28;;;;;;;7.85;3.08;;;;;;;;;;5089036;28;20103;-69
2021/04/08 04:29:54;;;;;;;9.10;2.65;;;;;;;;;;5087304;28;20035;-70
2021/04/08 04:32:20;;;;;;;9.30;2.97;;;;;;;;;;5088066;28;20077;-70
2021/04/08 04:34:47;;;;;;;13.45;2.47;;;;;;;;;;5088470;28;20035;-70
2021/04/08 04:37:13;;;;;;;9.60;2.53;;;;;;;;;;5088475;28;20150;-70
2021/04/08 04:39:39;;;;;;;15.55;2.88;;;;;;;;;;5091862;28;20031;-70
2021/04/08 04:42:06;;;;;;;9.18;2.95;;;;;;;;;;5091152;28;20043;-70
2021/04/08 04:44:32;;;;;;;10.68;2.50;;;;;;;;;;5091683;28;20031;-70
2021/04/08 04:46:59;;;;;;;11.52;2.58;;;;;;;;;;5092435;28;20028;-70
2021/04/08 04:49:25;;;;;;;16.42;3.17;;;;;;;;;;5089598;28;20090;-70
2021/04/08 04:51:51;;;;;;;12.93;3.22;;;;;;;;;;5092017;28;20024;-70
2021/04/08 04:54:18;;;;;;;11.85;3.28;;;;;;;;;;5091355;28;20127;-70
2021/04/08 04:56:44;;;;;;;11.38;3.00;;;;;;;;;;5091779;28;20052;-70
2021/04/08 04:59:10;;;;;;;11.18;3.47;;;;;;;;;;5091159;28;20024;-70
2021/04/08 05:01:36;;;;;;;8.30;2.90;;;;;;;;;;5088751;28;20032;-70
2021/04/08 05:04:02;;;;;;;9.98;3.65;;;;;;;;;;5090729;28;20037;-70
2021/04/08 05:06:28;;;;;;;10.65;3.53;;;;;;;;;;5091935;28;20028;-70
2021/04/08 05:08:54;;;;;;;13.23;4.20;;;;;;;;;;5095693;28;20016;-70
2021/04/08 05:11:20;;;;;;;12.07;3.75;;;;;;;;;;5086950;28;20426;-70
2021/04/08 05:13:46;;;;;;;11.80;5.15;;;;;;;;;;5091193;28;20027;-70
2021/04/08 05:16:12;;;;;;;12.90;4.65;;;;;;;;;;5091034;28;20032;-70
2021/04/08 05:18:38;;;;;;;15.25;5.40;;;;;;;;;;5089771;28;20433;-70
2021/04/08 05:21:04;;;;;;;13.15;5.47;;;;;;;;;;5090449;28;20103;-71
2021/04/08 05:23:30;;;;;;;16.83;5.35;;;;;;;;;;5091136;28;20035;-71
2021/04/08 05:25:57;;;;;;;12.60;4.85;;;;;;;;;;5082855;28;20446;-71
2021/04/08 05:28:23;;;;;;;15.18;5.05;;;;;;;;;;5084912;28;20497;-71
2021/04/08 05:30:49;;;;;;;17.35;6.00;;;;;;;;;;5084209;28;20035;-70
2021/04/08 05:33:15;;;;;;;11.70;5.18;;;;;;;;;;5083655;28;20502;-70
2021/04/08 05:35:41;;;;;;;15.68;6.65;;;;;;;;;;5086523;28;20028;-71
2021/04/08 05:38:07;;;;;;;11.55;6.03;;;;;;;;;;5095237;28;20524;-70
2021/04/08 05:40:33;;;;;;;12.75;5.75;;;;;;;;;;5090012;28;20603;-70
2021/04/08 05:42:59;;;;;;;17.85;5.80;;;;;;;;;;5091013;28;20414;-70
2021/04/08 05:45:27;;;;;;;15.57;5.78;;;;;;;;;;5089564;28;20490;-70
2021/04/08 05:47:54;;;;;;;14.70;6.05;;;;;;;;;;5087132;28;20031;-70
2021/04/08 05:50:20;;;;;;;11.32;5.43;;;;;;;;;;5078932;28;20024;-70
2021/04/08 05:52:46;;;;;;;22.35;6.63;;;;;;;;;;5091860;28;20028;-70
2021/04/08 05:55:13;;;;;;;15.77;6.25;;;;;;;;;;5091320;28;20035;-70
2021/04/08 05:57:39;;;;;;;18.90;6.25;;;;;;;;;;5090618;28;20028;-70
2021/04/08 06:00:06;;;;;;;13.82;5.82;;;;;;;;;;5083959;28;20036;-70
2021/04/08 06:02:32;;;;;;;13.32;6.45;;;;;;;;;;5091841;28;20028;-70
2021/04/08 06:04:58;;;;;;;16.08;6.60;;;;;;;;;;5088755;28;20036;-71
2021/04/08 06:07:24;;;;;;;13.45;5.38;;;;;;;;;;5088000;28;20036;-70
2021/04/08 06:09:50;;;;;;;15.60;6.18;;;;;;;;;;5086286;28;20012;-70
2021/04/08 06:12:16;;;;;;;12.90;5.50;;;;;;;;;;5090557;28;20051;-70
2021/04/08 06:14:43;;;;;;;18.13;6.82;;;;;;;;;;5090699;28;20074;-70
2021/04/08 06:17:09;;;;;;;19.52;6.57;;;;;;;;;;5083717;28;20024;-69
2021/04/08 06:19:36;;;;;;;21.42;6.15;;;;;;;;;;5085287;28;20028;-69
2021/04/08 06:22:02;;;;;;;14.68;6.03;;;;;;;;;;5087017;28;20107;-70
2021/04/08 06:24:28;;;;;;;10.18;5.40;;;;;;;;;;5087839;28;20021;-71
2021/04/08 06:26:55;;;;;;;11.70;5.57;;;;;;;;;;5088457;28;20304;-71
2021/04/08 06:29:21;;;;;;;13.98;6.03;;;;;;;;;;5086248;28;20024;-69
2021/04/08 06:31:47;;;;;;;11.95;5.50;;;;;;;;;;5087805;28;20027;-68
2021/04/08 06:34:13;;;;;;;12.88;6.32;;;;;;;;;;5085260;28;20020;-70
2021/04/08 06:36:39;;;;;;;14.05;6.10;;;;;;;;;;5089136;28;20094;-70
2021/04/08 06:39:05;;;;;;;12.70;5.38;;;;;;;;;;5086357;28;20016;-69
2021/04/08 06:41:32;;;;;;;12.85;5.60;;;;;;;;;;5090714;28;20036;-69
2021/04/08 06:44:00;;;;;;;15.52;5.97;;;;;;;;;;5087843;28;20028;-68
2021/04/08 06:46:27;;;;;;;11.35;5.20;;;;;;;;;;5088013;28;20035;-69
2021/04/08 06:49:04;;;;;;;14.10;5.78;;;;;;;;;;5087796;28;20494;-70
2021/04/08 06:51:32;;;;;;;15.48;6.25;;;;;;;;;;5087678;28;20024;-69
2021/04/08 06:54:02;;;;;;;11.57;4.97;;;;;;;;;;5087522;28;20016;-69
2021/04/08 06:56:29;;;;;;;14.20;6.35;;;;;;;;;;5090408;28;20032;-69
2021/04/08 06:58:56;;;;;;;14.23;4.95;;;;;;;;;;5085006;28;20031;-68
2021/04/08 07:01:22;;;;;;;16.23;6.40;;;;;;;;;;5083730;28;20039;-69
2021/04/08 07:03:48;;;;;;;12.85;5.47;;;;;;;;;;5092021;28;20065;-70
2021/04/08 07:06:14;;;;;;;11.38;6.18;;;;;;;;;;5097745;28;20499;-69
2021/04/08 07:08:40;;;;;;;14.02;6.10;;;;;;;;;;5091464;28;20455;-70
2021/04/08 07:11:06;;;;;;;15.02;6.50;;;;;;;;;;5090402;28;20112;-69
2021/04/08 07:13:33;;;;;;;18.70;6.75;;;;;;;;;;5082023;28;20623;-69
2021/04/08 07:16:00;;;;;;;14.40;6.20;;;;;;;;;;5083118;28;20044;-69
2021/04/08 07:18:27;;;;;;;17.45;6.25;;;;;;;;;;5079671;28;20020;-69
2021/04/08 07:20:54;;;;;;;21.63;8.80;;;;;;;;;;5088762;28;20024;-69
2021/04/08 07:23:20;;;;;;;12.95;6.13;;;;;;;;;;5090984;28;20027;-69
2021/04/08 07:26:05;;;;;;;15.82;6.30;;;;;;;;;;5091259;28;20540;-69
2021/04/08 07:28:32;;;;;;;12.65;6.60;;;;;;;;;;5080647;28;20370;-70
2021/04/08 07:31:18;;;;;;;14.27;6.05;;;;;;;;;;5079162;28;20059;-69
2021/04/08 07:33:44;;;;;;;15.50;6.53;;;;;;;;;;5075798;28;20387;-68
2021/04/08 07:36:10;;;;;;;16.08;7.43;;;;;;;;;;5087841;28;20055;-69
2021/04/08 07:38:49;;;;;;;15.77;7.10;;;;;;;;;;5091549;28;20086;-69
2021/04/08 07:41:22;;;;;;;17.40;6.95;;;;;;;;;;5075027;28;20086;-69
2021/04/08 07:43:57;;;;;;;11.48;6.30;;;;;;;;;;5088925;28;20028;-70
2021/04/08 07:46:30;;;;;;;11.63;5.35;;;;;;;;;;5078918;28;20044;-68
2021/04/08 07:48:56;;;;;;;14.70;7.78;;;;;;;;;;5088092;28;20089;-70
2021/04/08 07:51:29;;;;;;;8.68;4.97;;;;;;;;;;5086922;28;20091;-68
2021/04/08 07:54:08;;;;;;;17.95;7.63;;;;;;;;;;5087512;28;20043;-70
2021/04/08 07:56:34;;;;;;;15.52;6.95;;;;;;;;;;5090005;28;20032;-69
2021/04/08 07:59:19;;;;;;;15.60;8.30;;;;;;;;;;5087754;28;20514;-70
2021/04/08 08:01:46;;;;;;;17.38;8.40;;;;;;;;;;5087234;28;20078;-69
2021/04/08 08:04:19;;;;;;;16.88;7.72;;;;;;;;;;5083122;28;20020;-70
2021/04/08 08:06:45;;;;;;;15.25;7.68;;;;;;;;;;5089241;28;20047;-70
2021/04/08 08:09:11;;;;;;;18.27;8.55;;;;;;;;;;5085544;28;20090;-70
2021/04/08 08:11:41;;;;;;;15.65;9.52;;;;;;;;;;5083639;28;20032;-68
2021/04/08 08:14:09;;;;;;;16.50;9.48;;;;;;;;;;5088030;28;20052;-69
2021/04/08 08:16:35;;;;;;;13.93;8.07;;;;;;;;;;5078953;28;20078;-69
2021/04/08 08:19:02;;;;;;;20.10;9.65;;;;;;;;;;5078018;28;20035;-70
2021/04/08 08:21:28;;;;;;;16.48;9.32;;;;;;;;;;5082410;28;20616;-68
2021/04/08 08:23:55;;;;;;;15.57;8.88;;;;;;;;;;5077333;28;20040;-68
2021/04/08 08:26:25;;;;;;;17.90;9.05;;;;;;;;;;5078869;28;20118;-68
2021/04/08 08:28:52;;;;;;;19.25;7.70;;;;;;;;;;5083798;28;20119;-69
2021/04/08 08:31:33;;;;;;;19.42;8.75;;;;;;;;;;5076581;28;20024;-69
2021/04/08 08:34:02;;;;;;;18.00;8.07;;;;;;;;;;5082637;28;20089;-68
2021/04/08 08:36:28;;;;;;;16.88;8.50;;;;;;;;;;5075551;28;21008;-68
2021/04/08 08:38:54;;;;;;;16.70;9.73;;;;;;;;;;5078831;28;20039;-69
2021/04/08 08:41:20;;;;;;;15.40;8.70;;;;;;;;;;5075153;28;20024;-69
2021/04/08 08:43:46;;;;;;;14.02;8.30;;;;;;;;;;5079212;28;20059;-69
2021/04/08 08:46:13;;;;;;;14.80;7.95;;;;;;;;;;5078962;28;20036;-68
2021/04/08 08:48:39;;;;;;;16.67;5.53;;;;;;;;;;5081949;28;20043;-70
2021/04/08 08:51:05;;;;;;;10.18;4.78;;;;;;;;;;5074683;28;20016;-67
2021/04/08 08:53:33;;;;;;;11.20;3.80;;;;;;;;;;5078177;28;20384;-67
2021/04/08 08:55:59;;;;;;;10.73;3.88;;;;;;;;;;5083878;28;20028;-68
2021/04/08 08:58:25;;;;;;;11.07;4.10;;;;;;;;;;5076934;28;20038;-68
2021/04/08 09:00:51;;;;;;;11.27;4.20;;;;;;;;;;5077801;28;20047;-67
2021/04/08 09:03:17;;;;;;;11.68;5.05;;;;;;;;;;5084887;28;20070;-69
2021/04/08 09:05:44;;;;;;;11.77;4.82;;;;;;;;;;5082653;28;20021;-70
2021/04/08 09:08:17;;;;;;;10.63;4.60;;;;;;;;;;5081641;28;20020;-68
2021/04/08 09:10:44;;;;;;;10.88;3.95;;;;;;;;;;5083808;28;20027;-68
2021/04/08 09:13:11;;;;;;;9.27;3.88;;;;;;;;;;5081615;28;20264;-68
2021/04/08 09:15:37;;;;;;;11.95;3.83;;;;;;;;;;5081247;28;20430;-68
2021/04/08 09:18:08;;;;;;;9.75;4.75;;;;;;;;;;5083560;28;20039;-68
2021/04/08 09:20:34;;;;;;;9.60;4.10;;;;;;;;;;5078284;28;20020;-68
2021/04/08 09:23:01;;;;;;;7.85;3.53;;;;;;;;;;5081086;28;20032;-67
2021/04/08 09:25:32;;;;;;;6.97;3.10;;;;;;;;;;5077245;28;20028;-69
2021/04/08 09:28:04;;;;;;;10.13;3.97;;;;;;;;;;5084599;28;20400;-68
2021/04/08 09:30:41;;;;;;;9.75;4.05;;;;;;;;;;5077874;28;20021;-68
2021/04/08 09:33:08;;;;;;;10.30;3.80;;;;;;;;;;5084286;28;20052;-68
2021/04/08 09:35:34;;;;;;;8.35;2.90;;;;;;;;;;5083291;28;20520;-69
2021/04/08 09:38:00;;;;;;;7.90;3.08;;;;;;;;;;5089175;28;20126;-68
2021/04/08 09:40:42;;;;;;;6.65;2.20;;;;;;;;;;5079389;28;20505;-68
2021/04/08 09:43:13;;;;;;;12.88;3.33;;;;;;;;;;5080503;28;20030;-69
2021/04/08 09:45:45;;;;;;;6.47;2.42;;;;;;;;;;5090156;28;20050;-68
2021/04/08 09:48:11;;;;;;;;;;;;;;;;;;5090319;28;20020;-69
2021/04/08 09:50:56;;;;;;;7.07;2.72;;;;;;;;;;5074069;28;19919;-68
2021/04/08 09:53:23;;;;;;;6.95;2.55;;;;;;;;;;5088553;28;20110;-69
2021/04/08 09:55:50;;;;;;;6.53;2.45;;;;;;;;;;5084787;28;20078;-68
2021/04/08 09:58:21;;;;;;;13.35;6.00;;;;;;;;;;5078246;28;20074;-69
2021/04/08 10:00:47;;;;;;;7.50;4.13;;;;;;;;;;5073959;28;20035;-67
2021/04/08 10:03:13;;;;;;;11.77;5.93;;;;;;;;;;5087446;28;20040;-68
2021/04/08 10:05:40;;;;;;;10.45;5.30;;;;;;;;;;5080011;28;20099;-67
2021/04/08 10:08:06;;;;;;;18.38;6.65;;;;;;;;;;5088480;28;20035;-69
2021/04/08 10:10:38;;;;;;;12.43;6.18;;;;;;;;;;5072621;28;20583;-70
2021/04/08 10:13:13;;;;;;;8.82;2.67;;;;;;;;;;5085339;28;20090;-69
2021/04/08 10:15:39;;;;;;;4.57;1.30;;;;;;;;;;5083731;28;20044;-69
2021/04/08 10:18:16;;;;;;;6.95;1.60;;;;;;;;;;5086891;28;20032;-68
2021/04/08 10:20:42;;;;;;;7.32;1.92;;;;;;;;;;5081783;28;20039;-69
2021/04/08 10:23:08;;;;;;;5.40;1.80;;;;;;;;;;5083878;28;20024;-70
2021/04/08 10:25:35;;;;;;;6.82;2.53;;;;;;;;;;5078882;28;20039;-69
2021/04/08 10:28:02;;;;;;;5.47;1.77;;;;;;;;;;5086526;28;20098;-67
2021/04/08 10:30:33;;;;;;;7.20;2.30;;;;;;;;;;5084600;28;20036;-71
2021/04/08 10:32:59;;;;;;;4.30;1.20;;;;;;;;;;5084266;28;20021;-69
2021/04/08 10:35:27;;;;;;;4.97;1.63;;;;;;;;;;5080958;28;20063;-67
2021/04/08 10:38:04;;;;;;;6.40;1.60;;;;;;;;;;5080889;28;20020;-69
2021/04/08 10:40:30;;;;;;;3.33;1.13;;;;;;;;;;5086593;28;20600;-69
2021/04/08 10:43:09;;;;;;;6.15;1.50;;;;;;;;;;5085703;28;20031;-69
2021/04/08 10:45:35;;;;;;;5.22;1.42;;;;;;;;;;5081592;28;20020;-68
2021/04/08 10:48:01;;;;;;;2.75;1.13;;;;;;;;;;5078163;28;20056;-69
2021/04/08 10:50:27;;;;;;;4.95;1.40;;;;;;;;;;5076149;28;20072;-70
2021/04/08 10:52:54;;;;;;;4.50;1.77;;;;;;;;;;5084181;28;20023;-70
2021/04/08 10:55:24;;;;;;;4.95;1.73;;;;;;;;;;5073963;28;20024;-69
2021/04/08 10:57:50;;;;;;;4.75;1.98;;;;;;;;;;5085878;28;20482;-69
2021/04/08 11:00:17;;;;;;;6.55;2.17;;;;;;;;;;5081910;28;20031;-71
2021/04/08 11:02:44;;;;;;;6.80;1.60;;;;;;;;;;5084575;28;20075;-68
2021/04/08 11:05:19;;;;;;;6.13;1.42;;;;;;;;;;5085337;28;20054;-68
2021/04/08 11:07:48;;;;;;;4.30;1.40;;;;;;;;;;5082299;28;20043;-69
2021/04/08 11:10:34;;;;;;;4.97;1.45;;;;;;;;;;5078230;28;20526;-69
2021/04/08 11:13:01;;;;;;;4.38;1.90;;;;;;;;;;5083586;28;20478;-68
2021/04/08 11:15:28;;;;;;;3.15;1.38;;;;;;;;;;5083269;28;20052;-68
2021/04/08 11:17:55;;;;;;;6.22;1.60;;;;;;;;;;5082117;28;20028;-69
2021/04/08 11:20:30;;;;;;;9.65;1.63;;;;;;;;;;5082077;28;20024;-68
2021/04/08 11:22:56;;;;;;;4.32;1.42;;;;;;;;;;5077627;28;20098;-69
2021/04/08 11:25:24;;;;;;;5.90;2.20;;;;;;;;;;5083313;28;20042;-70
2021/04/08 11:27:52;;;;;;;4.55;1.70;;;;;;;;;;5087643;28;20024;-68
2021/04/08 11:30:26;;;;;;;3.17;1.02;;;;;;;;;;5082504;28;20098;-68
2021/04/08 11:32:53;;;;;;;5.65;1.60;;;;;;;;;;5080750;28;20375;-69
2021/04/08 11:35:45;;;;;;;5.82;1.52;;;;;;;;;;5084024;28;20032;-68
2021/04/08 11:38:15;;;;;;;5.00;1.33;;;;;;;;;;5078345;28;20044;-69
2021/04/08 11:40:42;;;;;;;6.47;1.75;;;;;;;;;;5082504;28;20058;-71
2021/04/08 11:43:25;;;;;;;4.93;1.55;;;;;;;;;;5084892;28;20031;-70
2021/04/08 11:45:55;;;;;;;3.47;1.27;;;;;;;;;;5081273;28;20533;-71
2021/04/08 11:48:22;;;;;;;4.97;1.70;;;;;;;;;;5079361;28;20020;-69
2021/04/08 11:50:49;;;;;;;5.65;1.80;;;;;;;;;;5080250;28;20046;-71
2021/04/08 11:53:16;;;;;;;7.38;1.92;;;;;;;;;;5075589;28;20017;-73
2021/04/08 11:55:46;;;;;;;7.72;2.33;;;;;;;;;;5074397;28;20047;-71
2021/04/08 11:58:13;;;;;;;6.00;1.88;;;;;;;;;;5078556;28;20506;-68
2021/04/08 12:00:41;;;;;;;7.35;1.60;;;;;;;;;;5082537;28;20028;-69
2021/04/08 12:03:19;;;;;;;4.00;1.70;;;;;;;;;;5079634;28;20069;-68
2021/04/08 12:05:45;;;;;;;6.13;1.60;;;;;;;;;;5082658;28;20045;-71
2021/04/08 12:08:12;;;;;;;10.93;2.78;;;;;;;;;;5090230;28;20500;-71
2021/04/08 12:10:38;;;;;;;5.10;1.45;;;;;;;;;;5077727;28;20064;-68
2021/04/08 12:13:05;;;;;;;4.10;1.20;;;;;;;;;;5072435;28;20025;-69
2021/04/08 12:15:42;;;;;;;2.63;1.15;;;;;;;;;;5083393;28;20452;-67
2021/04/08 12:18:12;;;;;;;4.88;1.58;;;;;;;;;;5083062;28;20118;-69
2021/04/08 12:20:38;;;;;;;4.95;1.30;;;;;;;;;;5086618;28;20563;-66
2021/04/08 12:23:23;;;;;;;3.10;0.80;;;;;;;;;;5082982;28;20028;-67
2021/04/08 12:25:51;;;;;;;3.17;0.80;;;;;;;;;;5080226;28;20051;-70
2021/04/08 12:28:17;;;;;;;5.75;1.27;;;;;;;;;;5081672;28;20564;-69
2021/04/08 12:30:56;;;;;;;2.40;0.63;;;;;;;;;;5081140;28;20026;-69
2021/04/08 12:33:22;;;;;;;4.82;0.70;;;;;;;;;;5081529;28;20031;-67
2021/04/08 12:35:48;;;;;;;6.75;1.30;;;;;;;;;;5075777;28;20098;-69
2021/04/08 12:38:14;;;;;;;7.32;1.05;;;;;;;;;;5083837;28;20047;-69
2021/04/08 12:40:41;;;;;;;5.47;1.00;;;;;;;;;;5081617;28;20036;-66
2021/04/08 12:43:08;;;;;;;3.40;0.85;;;;;;;;;;5083516;28;20032;-70
2021/04/08 12:45:34;;;;;;;8.00;1.40;;;;;;;;;;5082749;28;20089;-69
2021/04/08 12:48:00;;;;;;;5.55;1.02;;;;;;;;;;5077157;28;20707;-69
2021/04/08 12:50:26;;;;;;;4.03;1.25;;;;;;;;;;5085616;28;20032;-70
2021/04/08 12:52:52;;;;;;;2.15;0.60;;;;;;;;;;5078608;28;20021;-68
2021/04/08 12:55:19;;;;;;;2.13;0.95;;;;;;;;;;5078233;28;20074;-70
2021/04/08 12:57:45;;;;;;;4.65;1.33;;;;;;;;;;5077645;28;20115;-70
2021/04/08 13:00:11;;;;;;;4.00;1.05;;;;;;;;;;5078882;28;20031;-70
2021/04/08 13:02:37;;;;;;;4.00;1.23;;;;;;;;;;5079744;28;20028;-71
2021/04/08 13:05:05;;;;;;;7.00;1.05;;;;;;;;;;5083022;28;20017;-70
2021/04/08 13:07:31;;;;;;;4.20;1.13;;;;;;;;;;5083784;28;20024;-70
2021/04/08 13:09:57;;;;;;;3.00;0.82;;;;;;;;;;5081830;28;20028;-71
2021/04/08 13:12:23;;;;;;;3.47;1.00;;;;;;;;;;5079085;28;20028;-70
2021/04/08 13:14:49;;;;;;;5.47;0.88;;;;;;;;;;5080684;28;20043;-70
2021/04/08 13:17:16;;;;;;;3.03;0.90;;;;;;;;;;5084144;28;20097;-70
2021/04/08 13:19:42;;;;;;;5.53;1.00;;;;;;;;;;5079581;28;20024;-70
2021/04/08 13:22:08;;;;;;;5.63;0.95;;;;;;;;;;5081382;28;20070;-71
2021/04/08 13:24:35;;;;;;;7.68;1.33;;;;;;;;;;5083325;28;20050;-70
2021/04/08 13:27:03;;;;;;;8.48;1.42;;;;;;;;;;5082325;28;20047;-70
2021/04/08 13:29:29;;;;;;;7.78;1.80;;;;;;;;;;5080031;28;20020;-70
2021/04/08 13:31:55;;;;;;;3.85;1.20;;;;;;;;;;5081325;28;20028;-70
2021/04/08 13:34:21;;;;;;;3.90;1.13;;;;;;;;;;5082753;28;20027;-69
2021/04/08 13:36:47;;;;;;;5.90;1.60;;;;;;;;;;5081791;28;20032;-69
2021/04/08 13:39:13;;;;;;;12.60;2.33;;;;;;;;;;5078511;28;20016;-70
2021/04/08 13:41:39;;;;;;;6.20;2.08;;;;;;;;;;5081153;28;20028;-70
2021/04/08 13:44:05;;;;;;;3.83;1.30;;;;;;;;;;5082048;28;20023;-70
2021/04/08 13:46:31;;;;;;;6.55;1.90;;;;;;;;;;5083219;28;20074;-69
2021/04/08 13:48:57;;;;;;;5.68;1.67;;;;;;;;;;5081362;28;20043;-70
2021/04/08 13:51:24;;;;;;;6.32;1.38;;;;;;;;;;5082361;28;20020;-69
2021/04/08 13:53:50;;;;;;;11.05;1.63;;;;;;;;;;5080994;28;20032;-69
2021/04/08 13:56:16;;;;;;;7.28;1.35;;;;;;;;;;5079223;28;20032;-69
2021/04/08 13:58:43;;;;;;;6.30;1.63;;;;;;;;;;5081922;28;20405;-70
2021/04/08 14:01:09;;;;;;;6.28;1.77;;;;;;;;;;5076677;28;20043;-69
2021/04/08 14:03:35;;;;;;;5.93;1.63;;;;;;;;;;5082195;28;20036;-71
2021/04/08 14:06:02;;;;;;;4.47;1.48;;;;;;;;;;5082810;28;20043;-68
2021/04/08 14:08:28;;;;;;;10.18;1.27;;;;;;;;;;5088085;28;20304;-69
2021/04/08 14:10:54;;;;;;;5.90;1.27;;;;;;;;;;5085744;28;20043;-70
2021/04/08 14:13:20;;;;;;;7.82;1.20;;;;;;;;;;5080504;28;20115;-69
2021/04/08 14:15:46;;;;;;;3.35;0.98;;;;;;;;;;5081012;28;20053;-68
2021/04/08 14:18:12;;;;;;;6.03;1.60;;;;;;;;;;5082794;28;20032;-70
2021/04/08 14:20:39;;;;;;;5.80;1.30;;;;;;;;;;5080459;28;20129;-70
2021/04/08 14:23:06;;;;;;;4.38;1.38;;;;;;;;;;5082276;28;20047;-70
2021/04/08 14:25:32;;;;;;;4.85;1.30;;;;;;;;;;5083700;28;20042;-68
2021/04/08 14:27:58;;;;;;;2.42;0.93;;;;;;;;;;5069138;28;20189;-69
2021/04/08 14:30:24;;;;;;;4.68;1.23;;;;;;;;;;5079419;28;20021;-71
2021/04/08 14:32:50;;;;;;;5.95;1.15;;;;;;;;;;5081265;28;20024;-70
2021/04/08 14:35:17;;;;;;;5.90;1.50;;;;;;;;;;5081216;28;20680;-69
2021/04/08 14:37:43;;;;;;;4.78;1.63;;;;;;;;;;5078395;28;20486;-69
2021/04/08 14:40:09;;;;;;;4.85;1.67;;;;;;;;;;5076642;28;20032;-69
2021/04/08 14:42:36;;;;;;;7.38;1.77;;;;;;;;;;5078629;28;20077;-70